Time;durP1;ratioP1;P1;durP2;ratioP2;P2;SDS_P1;SDS_P2;PMS_P1;PMS_P2;Temp;Humidity;BMP_temperature;BMP_pressure;BME280_temperature;BME280_humidity;BME280_pressure;Samples;Min_cycle;Max_cycle;Signal;HPM_P1;HPM_P2
2021/06/15 00:02:19;;;;;;;9.53;7.43;;;;;;;23.37;46.00;101842.22;5012642;28;20234;-72
2021/06/15 00:04:44;;;;;;;7.97;6.70;;;;;;;23.37;46.10;101845.69;5011305;28;20178;-73
2021/06/15 00:07:10;;;;;;;10.00;7.43;;;;;;;23.37;46.11;101852.69;5013450;28;20190;-73
2021/06/15 00:09:35;;;;;;;10.13;6.77;;;;;;;23.35;46.33;101860.56;5012102;28;20230;-73
2021/06/15 00:12:03;;;;;;;8.93;6.93;;;;;;;23.35;46.29;101859.69;5012083;28;20231;-73
2021/06/15 00:14:28;;;;;;;10.93;7.33;;;;;;;23.32;46.44;101862.34;5012772;28;20179;-73
2021/06/15 00:16:53;;;;;;;9.83;7.10;;;;;;;23.29;46.45;101849.34;5008793;28;20195;-73
2021/06/15 00:19:18;;;;;;;9.43;7.23;;;;;;;23.26;46.39;101859.84;5012281;28;20273;-72
2021/06/15 00:21:44;;;;;;;12.00;6.83;;;;;;;23.23;46.70;101865.09;5021608;28;20187;-73
2021/06/15 00:24:09;;;;;;;10.33;6.83;;;;;;;23.24;46.70;101866.88;4994479;28;20172;-73
2021/06/15 00:26:34;;;;;;;9.80;6.37;;;;;;;23.22;46.62;101874.72;5011798;28;20196;-74
2021/06/15 00:29:00;;;;;;;10.10;6.37;;;;;;;23.21;46.52;101872.13;5028254;28;20214;-73
2021/06/15 00:31:27;;;;;;;8.07;6.10;;;;;;;23.21;46.56;101870.34;5012162;28;20195;-72
2021/06/15 00:33:52;;;;;;;8.63;6.17;;;;;;;23.22;46.36;101869.50;5013647;28;20176;-72
2021/06/15 00:36:18;;;;;;;9.33;6.07;;;;;;;23.20;46.77;101876.47;5013449;28;20190;-73
2021/06/15 00:38:43;;;;;;;10.77;6.50;;;;;;;23.22;46.54;101876.47;5011590;28;20194;-73
2021/06/15 00:41:08;;;;;;;11.03;6.33;;;;;;;23.18;46.46;101867.78;5011029;28;20220;-73
2021/06/15 00:43:34;;;;;;;11.43;6.30;;;;;;;23.18;46.38;101870.38;5025899;28;20179;-73
2021/06/15 00:45:59;;;;;;;10.17;6.20;;;;;;;23.19;46.53;101868.66;5011853;28;20171;-73
2021/06/15 00:48:34;;;;;;;8.37;5.83;;;;;;;23.20;46.55;101873.03;4992622;28;20188;-73
2021/06/15 00:51:00;;;;;;;7.80;6.03;;;;;;;23.20;46.50;101873.03;4993073;28;20202;-73
2021/06/15 00:53:27;;;;;;;8.90;6.10;;;;;;;23.18;46.72;101880.84;4993576;28;20260;-73
2021/06/15 00:55:53;;;;;;;10.07;6.27;;;;;;;23.16;46.79;101872.16;5009272;28;20254;-73
2021/06/15 00:58:18;;;;;;;9.57;6.23;;;;;;;23.15;46.85;101872.19;4994531;28;20188;-73
2021/06/15 01:00:44;;;;;;;9.40;5.93;;;;;;;23.15;47.00;101869.59;4993052;28;20199;-73
2021/06/15 01:03:11;;;;;;;9.07;5.83;;;;;;;23.14;46.71;101875.69;5008166;28;20184;-72
2021/06/15 01:05:36;;;;;;;12.17;6.33;;;;;;;23.13;46.84;101872.22;4993701;28;20556;-73
2021/06/15 01:08:39;;;;;;;9.80;5.93;;;;;;;23.12;46.77;101865.28;5025539;28;20651;-72
2021/06/15 01:11:36;;;;;;;9.77;5.97;;;;;;;23.11;46.90;101876.59;5013233;28;20210;-72
2021/06/15 01:14:20;;;;;;;9.53;5.53;;;;;;;23.12;46.92;101877.47;5028010;28;20179;-73
2021/06/15 01:17:05;;;;;;;9.23;5.23;;;;;;;23.11;46.60;101875.75;5027760;28;20186;-73
2021/06/15 01:20:01;;;;;;;7.43;5.57;;;;;;;23.09;46.70;101874.88;5004244;28;20180;-73
2021/06/15 01:22:53;;;;;;;9.20;5.40;;;;;;;23.09;46.73;101874.88;4992822;28;20641;-73
2021/06/15 01:25:43;;;;;;;8.37;5.50;;;;;;;23.09;46.76;101881.00;4993336;28;20181;-73
2021/06/15 01:28:15;;;;;;;8.73;6.00;;;;;;;23.07;46.55;101882.75;4991696;28;20400;-73
2021/06/15 01:31:21;;;;;;;9.73;5.67;;;;;;;23.07;46.74;101889.75;4993999;28;20203;-74
2021/06/15 01:33:52;;;;;;;8.97;5.20;;;;;;;23.07;46.18;101884.50;5017620;28;20201;-73
2021/06/15 01:36:20;;;;;;;7.43;5.10;;;;;;;23.06;46.83;101888.88;5011295;28;20190;-73
2021/06/15 01:38:52;;;;;;;8.90;5.10;;;;;;;23.07;46.55;101881.91;5012816;28;20191;-74
2021/06/15 01:41:24;;;;;;;8.60;4.93;;;;;;;23.04;46.59;101877.59;5012765;28;20762;-74
2021/06/15 01:43:51;;;;;;;7.63;4.93;;;;;;;23.04;46.67;101877.59;5027052;28;20175;-74
2021/06/15 01:46:22;;;;;;;8.77;5.03;;;;;;;23.05;46.33;101886.28;5011803;28;20252;-73
2021/06/15 01:49:02;;;;;;;8.30;5.30;;;;;;;23.05;46.84;101884.53;5026228;28;20187;-73
2021/06/15 01:51:29;;;;;;;7.83;4.80;;;;;;;23.04;46.56;101874.97;5011422;28;20687;-74
2021/06/15 01:53:59;;;;;;;6.37;4.77;;;;;;;23.05;46.53;101875.81;5012750;28;20171;-74
2021/06/15 01:56:29;;;;;;;7.73;4.90;;;;;;;23.04;46.91;101882.81;5012580;28;20249;-74
2021/06/15 01:58:57;;;;;;;8.80;4.87;;;;;;;23.04;46.68;101882.81;5013349;28;20771;-74
2021/06/15 02:01:26;;;;;;;6.20;4.33;;;;;;;23.02;46.85;101876.72;5012678;28;20566;-74
2021/06/15 02:03:53;;;;;;;7.43;4.80;;;;;;;23.04;46.73;101879.31;4999780;28;20187;-74
2021/06/15 02:06:21;;;;;;;7.40;5.20;;;;;;;23.02;46.76;101879.34;5009242;28;20204;-74
2021/06/15 02:08:52;;;;;;;7.83;5.40;;;;;;;23.01;46.66;101872.38;5008405;28;20184;-73
2021/06/15 02:11:21;;;;;;;7.40;4.57;;;;;;;23.00;46.95;101867.19;4992246;28;20192;-74
2021/06/15 02:13:48;;;;;;;9.97;4.90;;;;;;;23.01;46.72;101871.56;4992511;28;20215;-74
2021/06/15 02:16:15;;;;;;;8.53;5.27;;;;;;;23.00;46.62;101870.66;4991293;28;20705;-74
2021/06/15 02:18:44;;;;;;;7.47;5.20;;;;;;;23.00;46.69;101873.28;4991671;28;20190;-73
2021/06/15 02:21:11;;;;;;;7.27;4.60;;;;;;;23.01;46.62;101877.63;5026052;28;20209;-74
2021/06/15 02:23:39;;;;;;;7.67;5.20;;;;;;;23.00;46.81;101894.19;5011946;28;20602;-73
2021/06/15 02:26:09;;;;;;;9.70;5.10;;;;;;;23.00;46.71;101882.88;5009079;28;20262;-74
2021/06/15 02:28:35;;;;;;;8.13;5.00;;;;;;;22.96;47.12;101892.50;4991261;28;20168;-73
2021/06/15 02:31:02;;;;;;;8.43;5.07;;;;;;;22.95;46.75;101903.84;4994166;28;20206;-74
2021/06/15 02:33:33;;;;;;;7.83;5.20;;;;;;;22.94;47.06;101898.63;4992454;28;20664;-74
2021/06/15 02:36:03;;;;;;;7.20;5.10;;;;;;;22.91;47.06;101907.38;4992364;28;20266;-74
2021/06/15 02:38:35;;;;;;;9.07;5.00;;;;;;;22.90;46.97;101910.91;5000624;28;20742;-74
2021/06/15 02:41:04;;;;;;;7.53;4.87;;;;;;;22.90;46.76;101918.72;5011992;28;20790;-74
2021/06/15 02:43:31;;;;;;;7.90;5.13;;;;;;;22.90;46.83;101926.56;5010631;28;20180;-74
2021/06/15 02:45:58;;;;;;;5.53;4.60;;;;;;;22.89;47.18;101930.06;5025772;28;20836;-74
2021/06/15 02:48:28;;;;;;;10.30;5.33;;;;;;;22.89;46.67;101929.19;5012432;28;20191;-74
2021/06/15 02:50:55;;;;;;;6.87;5.00;;;;;;;22.89;46.54;101929.19;5011170;28;20207;-74
2021/06/15 02:53:30;;;;;;;7.30;5.07;;;;;;;22.87;46.99;101937.06;5016624;28;20201;-73
2021/06/15 02:56:09;;;;;;;8.60;4.47;;;;;;;22.84;46.79;101944.91;5029318;28;20252;-73
2021/06/15 02:58:34;;;;;;;7.10;4.30;;;;;;;22.83;46.96;101937.13;5012933;28;20211;-73
2021/06/15 03:00:59;;;;;;;7.50;4.93;;;;;;;22.82;47.27;101940.59;4993954;28;20226;-74
2021/06/15 03:03:25;;;;;;;9.40;4.77;;;;;;;22.80;47.08;101940.66;4995392;28;20171;-74
2021/06/15 03:05:50;;;;;;;7.17;4.50;;;;;;;22.81;46.91;101936.25;4995626;28;20195;-74
2021/06/15 03:08:15;;;;;;;8.70;4.40;;;;;;;22.77;46.83;101935.44;5002238;28;20229;-74
2021/06/15 03:10:41;;;;;;;10.13;4.57;;;;;;;22.78;46.97;101945.00;5030021;28;20209;-74
2021/06/15 03:13:26;;;;;;;6.40;4.57;;;;;;;22.74;46.86;101948.53;5013579;28;20266;-74
2021/06/15 03:15:53;;;;;;;8.20;4.03;;;;;;;22.70;46.82;101956.44;5015071;28;20676;-74
2021/06/15 03:18:18;;;;;;;9.40;4.33;;;;;;;22.72;46.89;101949.44;4998620;28;20255;-72
2021/06/15 03:20:46;;;;;;;8.70;4.43;;;;;;;22.71;47.05;101953.81;5010247;28;20270;-74
2021/06/15 03:23:30;;;;;;;10.53;4.27;;;;;;;22.70;46.92;101956.44;5030575;28;20186;-74
2021/06/15 03:26:00;;;;;;;6.67;3.63;;;;;;;22.71;47.09;101961.66;5015057;28;20167;-74
2021/06/15 03:28:27;;;;;;;10.27;4.53;;;;;;;22.69;46.85;101958.19;5028911;28;20174;-74
2021/06/15 03:30:54;;;;;;;9.10;4.37;;;;;;;22.65;47.02;101960.88;5009160;28;20208;-74
2021/06/15 03:33:19;;;;;;;7.20;3.90;;;;;;;22.67;46.83;101951.25;5007424;28;20180;-74
2021/06/15 03:35:50;;;;;;;8.00;4.10;;;;;;;22.68;46.89;101956.47;4996255;28;20176;-74
2021/06/15 03:38:18;;;;;;;10.70;4.70;;;;;;;22.68;47.04;101971.25;5013663;28;20183;-74
2021/06/15 03:40:48;;;;;;;7.40;4.00;;;;;;;22.66;46.99;101978.25;5014355;28;20237;-74
2021/06/15 03:43:16;;;;;;;8.27;4.20;;;;;;;22.65;46.94;101977.38;5014107;28;20183;-74
2021/06/15 03:45:46;;;;;;;8.83;4.10;;;;;;;22.65;46.98;101974.78;5012568;28;20197;-74
2021/06/15 03:48:14;;;;;;;8.07;3.90;;;;;;;22.66;47.11;101978.25;5012234;28;20279;-73
2021/06/15 03:50:39;;;;;;;7.97;3.93;;;;;;;22.63;46.81;101973.06;5030406;28;20210;-73
2021/06/15 03:53:09;;;;;;;8.90;4.63;;;;;;;22.56;47.04;101967.03;5024685;28;20176;-74
2021/06/15 03:55:37;;;;;;;9.67;4.80;;;;;;;22.55;47.11;101978.38;4995502;28;20254;-74
2021/06/15 03:58:06;;;;;;;10.10;4.30;;;;;;;22.57;47.08;101981.84;5010933;28;20193;-74
2021/06/15 04:00:34;;;;;;;12.93;4.70;;;;;;;22.60;47.08;101978.34;4999004;28;20206;-78
2021/06/15 04:03:03;;;;;;;9.73;4.57;;;;;;;22.62;47.35;101976.56;5009317;28;20210;-74
2021/06/15 04:05:30;;;;;;;12.00;4.83;;;;;;;22.62;47.26;101969.59;5013189;28;20540;-73
2021/06/15 04:07:59;;;;;;;11.73;4.23;;;;;;;22.54;47.34;101974.03;5012409;28;20193;-74
2021/06/15 04:10:26;;;;;;;7.83;4.17;;;;;;;22.55;47.86;101980.16;5006384;28;20196;-74
2021/06/15 04:12:53;;;;;;;7.77;3.87;;;;;;;22.56;47.44;101982.72;5006865;28;20692;-76
2021/06/15 04:15:18;;;;;;;11.53;4.13;;;;;;;22.52;47.25;101972.34;5027700;28;20175;-75
2021/06/15 04:17:48;;;;;;;10.83;3.93;;;;;;;22.48;47.47;101974.13;4992741;28;20259;-73
2021/06/15 04:20:14;;;;;;;11.27;4.10;;;;;;;22.36;47.41;101966.38;4992489;28;20210;-74
2021/06/15 04:22:45;;;;;;;9.00;3.53;;;;;;;22.41;47.25;101969.81;4992678;28;20287;-74
2021/06/15 04:25:12;;;;;;;7.23;3.57;;;;;;;22.38;47.14;101973.31;4992615;28;20546;-75
2021/06/15 04:27:38;;;;;;;11.17;3.80;;;;;;;22.32;47.62;101979.50;4993789;28;20187;-75
2021/06/15 04:30:08;;;;;;;7.80;3.40;;;;;;;22.33;47.21;101990.78;5011863;28;20221;-74
2021/06/15 04:32:55;;;;;;;7.83;3.50;;;;;;;22.25;47.09;101987.38;5011903;28;20238;-74
2021/06/15 04:35:40;;;;;;;9.30;3.13;;;;;;;22.27;47.43;102006.50;5012063;28;20213;-75
2021/06/15 04:38:12;;;;;;;9.67;3.33;;;;;;;22.24;47.15;102011.75;5012205;28;20504;-75
2021/06/15 04:40:42;;;;;;;6.47;3.00;;;;;;;22.09;47.16;102009.28;5011930;28;20560;-74
2021/06/15 04:43:19;;;;;;;8.17;3.47;;;;;;;21.99;47.40;102015.47;5011942;28;20730;-75
2021/06/15 04:45:45;;;;;;;10.07;3.53;;;;;;;21.97;47.49;102032.03;5012079;28;20178;-74
2021/06/15 04:48:17;;;;;;;8.23;3.13;;;;;;;21.97;47.02;102035.47;5011878;28;20191;-75
2021/06/15 04:50:43;;;;;;;7.03;3.17;;;;;;;21.99;47.02;102038.06;5025416;28;20652;-74
2021/06/15 04:53:09;;;;;;;6.50;3.13;;;;;;;21.91;47.32;102045.97;5025551;28;20237;-74
2021/06/15 04:55:39;;;;;;;5.87;2.63;;;;;;;21.93;47.15;102052.03;5010847;28;20258;-74
2021/06/15 04:58:08;;;;;;;9.73;2.80;;;;;;;21.92;46.90;102055.53;5009837;28;20178;-74
2021/06/15 05:00:35;;;;;;;6.90;2.63;;;;;;;21.88;47.04;102056.41;5009885;28;20234;-74
2021/06/15 05:03:03;;;;;;;8.03;2.50;;;;;;;21.81;46.71;102059.97;5011510;28;20167;-74
2021/06/15 05:05:28;;;;;;;10.57;3.07;;;;;;;21.80;47.00;102045.19;5011523;28;20552;-74
2021/06/15 05:08:05;;;;;;;10.33;3.03;;;;;;;21.82;46.74;102045.16;5010224;28;20176;-75
2021/06/15 05:10:36;;;;;;;5.83;2.43;;;;;;;21.88;46.95;102051.19;5010987;28;20199;-74
2021/06/15 05:13:03;;;;;;;6.50;2.90;;;;;;;21.91;46.12;102050.31;5010168;28;20619;-75
2021/06/15 05:15:30;;;;;;;6.67;2.37;;;;;;;21.85;46.52;102051.25;5009436;28;20552;-75
2021/06/15 05:17:57;;;;;;;5.70;2.30;;;;;;;21.81;46.26;102048.66;5009905;28;20179;-75
2021/06/15 05:20:24;;;;;;;4.43;2.37;;;;;;;21.79;46.36;102037.38;5009604;28;20257;-75
2021/06/15 05:23:14;;;;;;;5.67;2.60;;;;;;;21.86;46.50;102049.47;5010513;28;20174;-72
2021/06/15 05:25:41;;;;;;;5.73;2.40;;;;;;;21.93;46.38;102036.38;5014986;28;20175;-72
2021/06/15 05:28:06;;;;;;;7.60;2.33;;;;;;;22.06;46.01;102035.41;5017939;28;20179;-73
2021/06/15 05:30:31;;;;;;;7.00;2.57;;;;;;;22.14;45.98;102037.94;5013441;28;20238;-72
2021/06/15 05:32:57;;;;;;;7.17;2.30;;;;;;;22.19;45.86;102029.19;5015640;28;20179;-71
2021/06/15 05:35:22;;;;;;;11.03;2.40;;;;;;;22.24;45.91;102022.19;5015225;28;20518;-72
2021/06/15 05:37:48;;;;;;;5.87;2.20;;;;;;;22.33;45.99;102036.03;5013206;28;20234;-78
2021/06/15 05:40:15;;;;;;;8.80;2.80;;;;;;;22.53;46.34;102042.84;5010741;28;20203;-75
2021/06/15 05:42:40;;;;;;;4.77;2.33;;;;;;;22.56;46.03;102058.44;5026452;28;20270;-76
2021/06/15 05:45:07;;;;;;;9.10;2.47;;;;;;;22.59;45.72;102066.28;5010874;28;20213;-77
2021/06/15 05:47:32;;;;;;;10.60;2.83;;;;;;;22.60;45.88;102078.44;5007309;28;20764;-77
2021/06/15 05:49:58;;;;;;;7.13;2.60;;;;;;;22.59;45.52;102071.50;5009969;28;20282;-75
2021/06/15 05:52:23;;;;;;;9.23;2.80;;;;;;;22.61;45.77;102076.72;5009887;28;20592;-76
2021/06/15 05:54:48;;;;;;;8.77;2.53;;;;;;;22.61;46.29;102087.16;4993017;28;20209;-76
2021/06/15 05:57:14;;;;;;;8.57;2.53;;;;;;;22.56;46.06;102078.50;5010694;28;20636;-76
2021/06/15 05:59:39;;;;;;;10.90;2.73;;;;;;;22.57;45.97;102088.06;5008647;28;20202;-77
2021/06/15 06:02:06;;;;;;;7.50;2.70;;;;;;;22.57;45.65;102081.09;5010183;28;20182;-77
2021/06/15 06:04:36;;;;;;;12.40;2.63;;;;;;;22.57;45.79;102080.22;5009838;28;20229;-77
2021/06/15 06:09:45;;;;;;;10.70;3.07;;;;;;;22.69;46.05;102086.19;5009785;28;20269;-73
2021/06/15 06:12:10;;;;;;;8.23;2.20;;;;;;;22.74;45.68;102094.84;5008491;28;20679;-76
2021/06/15 06:14:36;;;;;;;6.83;2.27;;;;;;;22.73;45.55;102093.13;5010094;28;20668;-77
2021/06/15 06:17:02;;;;;;;14.53;2.50;;;;;;;22.70;45.50;102093.13;5009471;28;20240;-76
2021/06/15 06:19:28;;;;;;;9.50;2.33;;;;;;;22.60;45.00;102088.88;5008125;28;20236;-74
2021/06/15 06:21:54;;;;;;;9.20;2.50;;;;;;;22.63;45.31;102094.09;5009891;28;20183;-75
2021/06/15 06:24:20;;;;;;;13.73;2.60;;;;;;;22.69;45.06;102099.25;5009749;28;20257;-73
2021/06/15 06:26:51;;;;;;;8.60;2.10;;;;;;;22.75;44.88;102095.72;5007481;28;20681;-76
2021/06/15 06:29:18;;;;;;;10.27;2.30;;;;;;;22.73;44.67;102098.34;5009593;28;20211;-75
2021/06/15 06:31:43;;;;;;;9.10;2.30;;;;;;;22.77;44.99;102099.16;5008243;28;20203;-76
2021/06/15 06:34:08;;;;;;;12.43;2.50;;;;;;;22.85;45.08;102097.34;5010615;28;20245;-74
2021/06/15 06:36:34;;;;;;;10.47;2.60;;;;;;;22.92;45.64;102112.09;5010855;28;20179;-73
2021/06/15 06:38:59;;;;;;;11.30;2.10;;;;;;;22.94;45.29;102111.19;5010533;28;20747;-74
2021/06/15 06:41:27;;;;;;;6.23;2.10;;;;;;;22.98;45.69;102112.00;5000334;28;20212;-74
2021/06/15 06:43:52;;;;;;;9.17;2.07;;;;;;;22.99;45.13;102112.00;5009941;28;20189;-74
2021/06/15 06:46:17;;;;;;;7.50;2.17;;;;;;;22.99;44.76;102111.13;5010143;28;20629;-73
2021/06/15 06:48:43;;;;;;;5.77;2.00;;;;;;;22.98;45.01;102123.31;5009913;28;20203;-72
2021/06/15 06:51:08;;;;;;;5.80;1.77;;;;;;;22.98;45.49;102118.09;5007968;28;20207;-72
2021/06/15 06:53:34;;;;;;;13.60;2.30;;;;;;;23.11;46.61;102127.53;5008619;28;20186;-73
2021/06/15 06:56:00;;;;;;;8.60;2.20;;;;;;;23.10;44.93;102133.66;5008366;28;20686;-75
2021/06/15 06:58:25;;;;;;;8.63;1.87;;;;;;;23.08;44.94;102132.81;5011723;28;20187;-75
2021/06/15 07:00:50;;;;;;;6.47;1.90;;;;;;;23.04;44.70;102131.13;5013639;28;20656;-78
2021/06/15 07:03:16;;;;;;;5.83;2.03;;;;;;;23.01;44.95;102141.59;5013462;28;20182;-77
2021/06/15 07:05:41;;;;;;;10.43;2.10;;;;;;;23.01;44.65;102138.97;4998946;28;20184;-76
2021/06/15 07:08:06;;;;;;;10.57;2.50;;;;;;;23.03;44.86;102138.97;4992601;28;20216;-79
2021/06/15 07:10:32;;;;;;;11.17;2.50;;;;;;;23.00;45.03;102146.81;5007939;28;20207;-75
2021/06/15 07:12:57;;;;;;;5.50;1.90;;;;;;;22.89;43.09;102149.56;4994174;28;20811;-76
2021/06/15 07:15:23;;;;;;;6.03;1.90;;;;;;;22.82;42.89;102150.50;5013153;28;20195;-77
2021/06/15 07:17:48;;;;;;;4.47;1.50;;;;;;;22.77;42.53;102156.63;5002171;28;20183;-77
2021/06/15 07:20:13;;;;;;;6.07;1.93;;;;;;;22.65;42.31;102147.16;4998706;28;20742;-74
2021/06/15 07:22:39;;;;;;;6.47;2.07;;;;;;;22.70;42.83;102149.75;5009351;28;20171;-77
2021/06/15 07:25:05;;;;;;;5.77;2.00;;;;;;;22.68;42.60;102148.88;5007383;28;20226;-77
2021/06/15 07:27:30;;;;;;;7.33;1.90;;;;;;;22.69;42.55;102154.09;5032320;28;20186;-79
2021/06/15 07:29:56;;;;;;;7.13;1.93;;;;;;;22.67;42.47;102149.78;5021997;28;20611;-77
2021/06/15 07:32:21;;;;;;;6.03;2.10;;;;;;;22.56;42.62;102154.25;5007257;28;20238;-77
2021/06/15 07:34:47;;;;;;;7.13;1.67;;;;;;;22.49;42.50;102152.53;5012000;28;20261;-77
2021/06/15 07:37:13;;;;;;;8.03;1.93;;;;;;;22.40;42.47;102158.69;5011159;28;20801;-80
2021/06/15 07:39:38;;;;;;;7.60;2.37;;;;;;;22.28;42.45;102151.81;5012550;28;20187;-77
2021/06/15 07:42:04;;;;;;;7.97;1.97;;;;;;;22.37;42.22;102150.03;5015323;28;20186;-78
2021/06/15 07:44:29;;;;;;;6.93;1.80;;;;;;;22.33;41.82;102148.31;4997695;28;20175;-79
2021/06/15 07:46:55;;;;;;;3.93;1.50;;;;;;;22.24;42.27;102154.44;4994962;28;20180;-78
2021/06/15 07:49:21;;;;;;;5.37;1.60;;;;;;;22.33;42.18;102158.75;5001359;28;20187;-79
2021/06/15 07:51:47;;;;;;;6.20;1.70;;;;;;;22.25;42.26;102146.59;5014062;28;20286;-77
2021/06/15 07:54:12;;;;;;;6.27;1.70;;;;;;;22.23;42.04;102150.97;4998490;28;20288;-80
2021/06/15 07:56:37;;;;;;;6.10;1.80;;;;;;;22.24;41.81;102146.59;4995583;28;20904;-77
2021/06/15 07:59:03;;;;;;;4.80;1.83;;;;;;;22.20;41.73;102144.94;5014607;28;20191;-79
2021/06/15 08:01:28;;;;;;;6.30;1.50;;;;;;;22.23;41.98;102148.38;5003000;28;20217;-77
2021/06/15 08:03:53;;;;;;;3.77;1.60;;;;;;;22.32;42.09;102151.81;5012804;28;20190;-79
2021/06/15 08:06:19;;;;;;;7.67;1.60;;;;;;;22.30;42.04;102147.44;5014317;28;20250;-78
2021/06/15 08:08:44;;;;;;;5.37;1.67;;;;;;;22.28;41.96;102148.31;5019357;28;20204;-78
2021/06/15 08:11:09;;;;;;;10.93;2.03;;;;;;;22.26;42.28;102150.09;5012988;28;20203;-77
2021/06/15 08:13:35;;;;;;;9.20;1.80;;;;;;;22.20;42.09;102148.38;5011119;28;20180;-78
2021/06/15 08:16:00;;;;;;;6.80;1.70;;;;;;;22.38;42.64;102149.13;4995364;28;20733;-78
2021/06/15 08:18:26;;;;;;;8.73;1.80;;;;;;;22.39;42.64;102147.34;4994052;28;20234;-80
2021/06/15 08:20:53;;;;;;;5.63;1.73;;;;;;;22.37;42.33;102150.03;4994726;28;20707;-77
2021/06/15 08:23:22;;;;;;;8.17;1.43;;;;;;;22.35;42.79;102148.25;5001877;28;20652;-78
2021/06/15 08:25:48;;;;;;;5.57;1.67;;;;;;;22.34;42.58;102156.97;4994917;28;20184;-78
2021/06/15 08:28:14;;;;;;;3.60;1.40;;;;;;;22.38;42.28;102154.34;5001575;28;20194;-78
2021/06/15 08:30:39;;;;;;;5.73;1.50;;;;;;;22.34;41.65;102156.97;5009953;28;20258;-78
2021/06/15 08:33:05;;;;;;;3.93;1.47;;;;;;;22.34;41.82;102154.38;4997536;28;20175;-78
2021/06/15 08:35:30;;;;;;;7.70;1.80;;;;;;;22.33;42.28;102156.97;5013948;28;20265;-78
2021/06/15 08:37:56;;;;;;;3.83;1.53;;;;;;;22.38;41.77;102156.97;5012754;28;20176;-82
2021/06/15 08:40:22;;;;;;;3.90;1.30;;;;;;;22.44;43.26;102149.94;4997524;28;20209;-76
2021/06/15 08:42:47;;;;;;;6.47;1.40;;;;;;;22.69;41.63;102153.25;4999024;28;20180;-75
2021/06/15 08:45:14;;;;;;;6.77;1.60;;;;;;;22.74;41.75;102149.69;4999828;28;20210;-72
2021/06/15 08:47:42;;;;;;;4.87;1.50;;;;;;;22.70;41.89;102147.16;5011649;28;20199;-71
2021/06/15 08:50:10;;;;;;;7.63;1.90;;;;;;;22.68;40.99;102151.50;5009224;28;20211;-70
2021/06/15 08:52:36;;;;;;;5.13;1.50;;;;;;;22.57;41.39;102153.34;5011581;28;20683;-72
2021/06/15 08:55:03;;;;;;;5.83;1.50;;;;;;;22.54;40.87;102153.38;5012744;28;20202;-70
2021/06/15 08:57:29;;;;;;;5.63;1.40;;;;;;;22.51;41.09;102145.59;5014479;28;20555;-71
2021/06/15 08:59:56;;;;;;;4.33;1.47;;;;;;;22.52;41.18;102155.13;4993923;28;20196;-70
2021/06/15 09:02:21;;;;;;;7.03;1.70;;;;;;;22.52;41.16;102150.78;5007562;28;20225;-71
2021/06/15 09:04:46;;;;;;;7.80;1.60;;;;;;;22.48;40.58;102156.91;5007170;28;20192;-71
2021/06/15 09:07:12;;;;;;;5.13;1.70;;;;;;;22.44;40.83;102153.41;5021993;28;20528;-71
2021/06/15 09:09:42;;;;;;;5.07;1.80;;;;;;;22.52;40.91;102150.78;5002267;28;20274;-71
2021/06/15 09:12:09;;;;;;;10.73;1.93;;;;;;;22.58;41.12;102149.84;4996121;28;20200;-70
2021/06/15 09:14:48;;;;;;;9.20;2.00;;;;;;;22.58;42.01;102145.50;4995509;28;20191;-72
2021/06/15 09:17:26;;;;;;;8.83;1.70;;;;;;;22.70;42.14;102145.38;5032545;28;20187;-72
2021/06/15 09:19:53;;;;;;;5.83;1.50;;;;;;;22.80;42.03;102149.66;5015864;28;20252;-70
2021/06/15 09:22:33;;;;;;;5.67;1.50;;;;;;;22.78;41.65;102142.72;5015697;28;20183;-71
2021/06/15 09:24:59;;;;;;;6.20;1.53;;;;;;;22.71;41.59;102154.97;5001740;28;20183;-72
2021/06/15 09:27:36;;;;;;;6.57;1.80;;;;;;;22.74;41.28;102139.25;5031454;28;20183;-69
2021/06/15 09:30:07;;;;;;;8.50;2.13;;;;;;;22.81;41.44;102143.56;5016907;28;20190;-71
2021/06/15 09:32:37;;;;;;;5.50;1.40;;;;;;;22.82;41.03;102150.50;4999165;28;20196;-71
2021/06/15 09:35:07;;;;;;;16.70;3.10;;;;;;;22.79;40.92;102160.13;5010378;28;20194;-71
2021/06/15 09:37:38;;;;;;;6.17;1.53;;;;;;;22.71;40.82;102149.75;4996394;28;20962;-72
2021/06/15 09:40:13;;;;;;;6.33;1.67;;;;;;;22.69;40.49;102146.25;5008421;28;20200;-73
2021/06/15 09:43:09;;;;;;;6.63;1.60;;;;;;;22.72;40.02;102145.38;5000649;28;20573;-71
2021/06/15 09:45:38;;;;;;;5.00;1.80;;;;;;;22.72;40.14;102153.22;4997371;28;20207;-73
2021/06/15 09:48:30;;;;;;;6.03;1.80;;;;;;;22.74;39.87;102144.47;4992910;28;20191;-71
2021/06/15 09:51:18;;;;;;;8.13;1.80;;;;;;;22.74;40.00;102152.31;4999488;28;20583;-73
2021/06/15 09:53:48;;;;;;;7.73;2.07;;;;;;;22.77;40.15;102151.41;5010902;28;20183;-73
2021/06/15 09:56:15;;;;;;;6.57;1.90;;;;;;;22.79;40.02;102152.28;5013643;28;20774;-73
2021/06/15 09:58:48;;;;;;;10.07;2.50;;;;;;;22.82;40.20;102160.06;5003398;28;20191;-72
2021/06/15 10:01:22;;;;;;;8.07;1.87;;;;;;;22.73;39.67;102158.44;5008261;28;20222;-73
2021/06/15 10:04:06;;;;;;;8.00;2.20;;;;;;;22.63;40.08;102156.78;5000771;28;20205;-73
2021/06/15 10:06:36;;;;;;;5.60;2.03;;;;;;;22.67;39.87;102153.25;4998383;28;20171;-73
2021/06/15 10:09:01;;;;;;;7.60;2.47;;;;;;;22.76;39.92;102155.78;4995080;28;20183;-72
2021/06/15 10:11:27;;;;;;;6.20;2.10;;;;;;;22.79;39.90;102150.53;4994926;28;20207;-71
2021/06/15 10:13:52;;;;;;;8.50;2.33;;;;;;;22.87;40.51;102160.88;5007093;28;20416;-70
2021/06/15 10:16:18;;;;;;;7.90;2.30;;;;;;;22.96;40.62;102155.56;4993224;28;20428;-76
2021/06/15 10:18:43;;;;;;;4.80;2.10;;;;;;;22.99;40.62;102152.94;5005613;28;20188;-75
2021/06/15 10:21:10;;;;;;;4.43;2.10;;;;;;;23.13;40.35;102154.53;4977469;28;20707;-75
2021/06/15 10:23:35;;;;;;;6.67;1.70;;;;;;;23.15;40.52;102152.75;5008530;28;20702;-72
2021/06/15 10:26:01;;;;;;;6.57;2.13;;;;;;;23.11;40.37;102143.22;5007811;28;20191;-72
2021/06/15 10:28:30;;;;;;;6.10;1.90;;;;;;;23.13;40.34;102143.19;4999993;28;20263;-72
2021/06/15 10:31:01;;;;;;;6.07;1.80;;;;;;;23.13;40.65;102148.44;4991038;28;20727;-71
2021/06/15 10:33:26;;;;;;;4.13;1.60;;;;;;;23.11;40.02;102138.00;5001329;28;20705;-71
2021/06/15 10:35:58;;;;;;;6.37;1.60;;;;;;;23.14;39.95;102137.97;4995538;28;20219;-71
2021/06/15 10:38:29;;;;;;;5.10;1.97;;;;;;;23.13;40.15;102138.84;5000615;28;20178;-73
2021/06/15 10:41:00;;;;;;;9.90;1.87;;;;;;;23.18;40.08;102134.44;5011321;28;20203;-72
2021/06/15 10:43:37;;;;;;;5.37;1.60;;;;;;;23.31;40.07;102136.06;5011512;28;20174;-73
2021/06/15 10:46:05;;;;;;;4.07;1.40;;;;;;;23.33;39.91;102134.28;5013679;28;20548;-73
2021/06/15 10:48:38;;;;;;;3.70;1.77;;;;;;;23.37;40.04;102132.47;5010193;28;20253;-72
2021/06/15 10:51:18;;;;;;;7.30;1.30;;;;;;;23.37;39.97;102137.72;4991929;28;20213;-73
2021/06/15 10:53:44;;;;;;;5.67;1.97;;;;;;;23.31;39.96;102140.41;4994151;28;20195;-72
2021/06/15 10:56:15;;;;;;;8.47;2.10;;;;;;;23.31;39.79;102136.06;5009017;28;20191;-72
2021/06/15 10:58:44;;;;;;;5.13;1.70;;;;;;;23.31;39.25;102127.34;4995583;28;20615;-71
2021/06/15 11:01:18;;;;;;;5.40;1.37;;;;;;;23.36;39.28;102139.47;5001483;28;20273;-72
2021/06/15 11:04:01;;;;;;;7.10;1.97;;;;;;;23.40;39.20;102137.69;5001906;28;20186;-73
2021/06/15 11:06:26;;;;;;;3.83;1.40;;;;;;;23.44;39.23;102135.00;4992780;28;20212;-73
2021/06/15 11:09:14;;;;;;;8.77;1.80;;;;;;;23.47;39.25;102131.47;5004966;28;20295;-72
2021/06/15 11:11:41;;;;;;;5.50;1.60;;;;;;;23.41;39.38;102127.22;5020861;28;20208;-72
2021/06/15 11:14:20;;;;;;;4.23;1.83;;;;;;;23.38;39.11;102135.09;5011277;28;20598;-72
2021/06/15 11:16:56;;;;;;;6.07;1.87;;;;;;;23.33;39.37;102136.91;5014700;28;20183;-71
2021/06/15 11:19:21;;;;;;;6.53;2.00;;;;;;;23.37;39.07;102133.38;5002368;28;20182;-71
2021/06/15 11:21:55;;;;;;;6.73;2.00;;;;;;;23.36;39.05;102131.63;4977721;28;20239;-74
2021/06/15 11:24:23;;;;;;;7.00;1.80;;;;;;;23.27;39.18;102130.88;5035406;28;20179;-72
2021/06/15 11:26:51;;;;;;;5.67;1.90;;;;;;;23.20;39.22;102132.69;5006927;28;20395;-72
2021/06/15 11:29:39;;;;;;;5.03;1.60;;;;;;;23.20;39.19;102140.53;5014632;28;20179;-72
2021/06/15 11:32:23;;;;;;;7.80;1.90;;;;;;;23.23;39.46;102137.00;5014526;28;20291;-73
2021/06/15 11:35:03;;;;;;;4.93;1.40;;;;;;;23.27;39.16;102121.28;5015746;28;20194;-73
2021/06/15 11:37:34;;;;;;;9.00;1.90;;;;;;;23.33;39.41;102130.78;5027750;28;20183;-72